sensor_id;sensor_type;location;lat;lon;timestamp;pressure;altitude;pressure_sealevel;temperature;humidity
15971;BME280;59785;52.582;13.892;2022-07-29T00:02:14;101197.34;;;14.47;67.12
15971;BME280;59785;52.582;13.892;2022-07-29T00:04:41;101187.25;;;14.49;67.00
15971;BME280;59785;52.582;13.892;2022-07-29T00:07:07;101196.38;;;14.48;67.41
15971;BME280;59785;52.582;13.892;2022-07-29T00:09:33;101189.94;;;14.49;66.99
15971;BME280;59785;52.582;13.892;2022-07-29T00:12:17;101192.84;;;14.48;67.27
15971;BME280;59785;52.582;13.892;2022-07-29T00:14:55;101180.34;;;14.47;67.27
15971;BME280;59785;52.582;13.892;2022-07-29T00:17:22;101181.38;;;14.54;67.29
15971;BME280;59785;52.582;13.892;2022-07-29T00:19:49;101186.75;;;14.54;67.12
15971;BME280;59785;52.582;13.892;2022-07-29T00:22:15;101184.22;;;14.52;67.79
15971;BME280;59785;52.582;13.892;2022-07-29T00:24:41;101188.13;;;14.50;67.23
15971;BME280;59785;52.582;13.892;2022-07-29T00:27:07;101186.56;;;14.47;67.84
15971;BME280;59785;52.582;13.892;2022-07-29T00:29:34;101183.38;;;14.44;67.77
15971;BME280;59785;52.582;13.892;2022-07-29T00:32:01;101185.22;;;14.43;67.80
15971;BME280;59785;52.582;13.892;2022-07-29T00:34:28;101182.53;;;14.43;68.14
15971;BME280;59785;52.582;13.892;2022-07-29T00:37:12;101180.88;;;14.42;68.49
15971;BME280;59785;52.582;13.892;2022-07-29T00:39:38;101188.94;;;14.42;68.45
15971;BME280;59785;52.582;13.892;2022-07-29T11:46:47;101012.16;;;25.90;36.25
15971;BME280;59785;52.582;13.892;2022-07-29T11:49:22;101002.63;;;26.10;36.16
15971;BME280;59785;52.582;13.892;2022-07-29T11:51:58;101006.19;;;26.10;35.25
15971;BME280;59785;52.582;13.892;2022-07-29T11:54:33;100997.84;;;26.22;35.57
15971;BME280;59785;52.582;13.892;2022-07-29T11:57:20;100991.31;;;26.62;36.14
15971;BME280;59785;52.582;13.892;2022-07-29T11:59:47;100996.81;;;26.62;35.66
15971;BME280;59785;52.582;13.892;2022-07-29T12:02:14;101000.94;;;26.48;35.98
15971;BME280;59785;52.582;13.892;2022-07-29T12:05:00;101000.47;;;26.51;36.23
15971;BME280;59785;52.582;13.892;2022-07-29T12:07:36;100992.13;;;26.63;35.28
15971;BME280;59785;52.582;13.892;2022-07-29T12:10:04;100987.13;;;26.60;35.86
15971;BME280;59785;52.582;13.892;2022-07-29T12:12:31;100981.31;;;26.78;35.60
15971;BME280;59785;52.582;13.892;2022-07-29T12:14:57;100988.66;;;27.17;35.69
15971;BME280;59785;52.582;13.892;2022-07-29T12:17:32;100981.31;;;27.00;34.91
15971;BME280;59785;52.582;13.892;2022-07-29T12:20:03;100982.00;;;27.12;34.81
15971;BME280;59785;52.582;13.892;2022-07-29T12:22:35;100971.59;;;27.20;35.03
15971;BME280;59785;52.582;13.892;2022-07-29T12:25:08;100968.72;;;27.31;34.92
15971;BME280;59785;52.582;13.892;2022-07-29T12:27:59;100970.69;;;27.63;33.53
15971;BME280;59785;52.582;13.892;2022-07-29T12:30:37;100973.88;;;27.50;33.03
15971;BME280;59785;52.582;13.892;2022-07-29T12:33:11;100971.09;;;27.82;33.53
15971;BME280;59785;52.582;13.892;2022-07-29T12:35:38;100967.81;;;28.18;32.88
15971;BME280;59785;52.582;13.892;2022-07-29T12:38:05;100968.94;;;28.22;32.37
15971;BME280;59785;52.582;13.892;2022-07-29T12:40:32;100966.19;;;28.27;31.84
15971;BME280;59785;52.582;13.892;2022-07-29T12:43:08;100968.84;;;28.54;31.88
15971;BME280;59785;52.582;13.892;2022-07-29T12:45:40;100964.94;;;28.50;31.45
15971;BME280;59785;52.582;13.892;2022-07-29T12:48:08;100958.50;;;28.82;31.31
15971;BME280;59785;52.582;13.892;2022-07-29T12:50:36;100961.81;;;28.84;30.81
15971;BME280;59785;52.582;13.892;2022-07-29T12:53:12;100964.03;;;28.97;31.05
15971;BME280;59785;52.582;13.892;2022-07-29T12:55:47;100960.69;;;28.85;30.64
15971;BME280;59785;52.582;13.892;2022-07-29T12:58:33;100954.41;;;29.10;30.06
15971;BME280;59785;52.582;13.892;2022-07-29T13:01:12;100964.13;;;29.18;29.84
15971;BME280;59785;52.582;13.892;2022-07-29T13:03:55;100964.69;;;29.20;30.07
15971;BME280;59785;52.582;13.892;2022-07-29T13:06:30;100953.94;;;29.23;29.87
15971;BME280;59785;52.582;13.892;2022-07-29T13:09:09;100950.81;;;28.99;29.83
15971;BME280;59785;52.582;13.892;2022-07-29T13:11:38;100938.91;;;28.83;29.60
15971;BME280;59785;52.582;13.892;2022-07-29T13:14:13;100944.44;;;28.88;29.87
15971;BME280;59785;52.582;13.892;2022-07-29T13:17:09;100938.13;;;29.08;28.95
15971;BME280;59785;52.582;13.892;2022-07-29T13:19:41;100945.66;;;29.28;29.17
15971;BME280;59785;52.582;13.892;2022-07-29T13:22:09;100932.66;;;29.34;28.68
15971;BME280;59785;52.582;13.892;2022-07-29T13:24:46;100932.44;;;29.46;28.33
15971;BME280;59785;52.582;13.892;2022-07-29T13:27:14;100928.81;;;29.61;27.90
15971;BME280;59785;52.582;13.892;2022-07-29T13:29:40;100926.63;;;29.73;28.02
15971;BME280;59785;52.582;13.892;2022-07-29T13:32:06;100929.38;;;29.94;28.12
15971;BME280;59785;52.582;13.892;2022-07-29T13:34:33;100926.03;;;30.07;26.97
15971;BME280;59785;52.582;13.892;2022-07-29T13:36:59;100927.19;;;29.85;27.70
15971;BME280;59785;52.582;13.892;2022-07-29T13:39:25;100921.09;;;29.73;27.94
15971;BME280;59785;52.582;13.892;2022-07-29T13:41:51;100922.22;;;29.77;27.76
15971;BME280;59785;52.582;13.892;2022-07-29T13:44:18;100929.66;;;29.72;28.06
15971;BME280;59785;52.582;13.892;2022-07-29T13:46:44;100918.91;;;29.44;28.26
15971;BME280;59785;52.582;13.892;2022-07-29T13:49:10;100914.47;;;29.48;28.83
15971;BME280;59785;52.582;13.892;2022-07-29T13:51:37;100911.44;;;29.55;28.00
15971;BME280;59785;52.582;13.892;2022-07-29T13:54:04;100917.22;;;29.43;27.91
15971;BME280;59785;52.582;13.892;2022-07-29T13:56:30;100913.06;;;29.61;27.66
15971;BME280;59785;52.582;13.892;2022-07-29T13:58:56;100910.59;;;29.85;26.96
15971;BME280;59785;52.582;13.892;2022-07-29T14:01:23;100908.31;;;30.13;26.89
15971;BME280;59785;52.582;13.892;2022-07-29T14:03:50;100900.63;;;30.00;26.92
15971;BME280;59785;52.582;13.892;2022-07-29T14:06:16;100910.06;;;29.83;27.64
15971;BME280;59785;52.582;13.892;2022-07-29T14:08:43;100904.81;;;29.82;27.95
15971;BME280;59785;52.582;13.892;2022-07-29T14:11:09;100897.63;;;29.60;27.91
15971;BME280;59785;52.582;13.892;2022-07-29T14:13:35;100902.88;;;29.31;28.01
15971;BME280;59785;52.582;13.892;2022-07-29T14:16:01;100901.50;;;29.23;28.29
15971;BME280;59785;52.582;13.892;2022-07-29T14:18:28;100896.22;;;29.17;28.53
15971;BME280;59785;52.582;13.892;2022-07-29T14:20:54;100888.69;;;28.81;29.29
15971;BME280;59785;52.582;13.892;2022-07-29T14:23:20;100902.75;;;28.69;29.32
15971;BME280;59785;52.582;13.892;2022-07-29T14:25:46;100889.47;;;28.51;29.90
15971;BME280;59785;52.582;13.892;2022-07-29T14:28:14;100892.41;;;28.39;30.04
15971;BME280;59785;52.582;13.892;2022-07-29T14:30:41;100888.03;;;28.48;29.79
15971;BME280;59785;52.582;13.892;2022-07-29T14:33:07;100885.00;;;28.50;29.60
15971;BME280;59785;52.582;13.892;2022-07-29T14:35:33;100879.44;;;28.29;29.53
15971;BME280;59785;52.582;13.892;2022-07-29T14:38:00;100889.47;;;28.51;29.61
15971;BME280;59785;52.582;13.892;2022-07-29T14:40:26;100887.88;;;28.70;29.33
15971;BME280;59785;52.582;13.892;2022-07-29T14:42:52;100886.22;;;28.75;29.19
15971;BME280;59785;52.582;13.892;2022-07-29T14:45:18;100877.91;;;28.69;28.75
15971;BME280;59785;52.582;13.892;2022-07-29T14:47:44;100883.47;;;28.75;28.97
15971;BME280;59785;52.582;13.892;2022-07-29T14:50:11;100879.09;;;28.94;28.73
15971;BME280;59785;52.582;13.892;2022-07-29T14:52:37;100883.81;;;29.29;28.58
15971;BME280;59785;52.582;13.892;2022-07-29T14:55:04;100882.97;;;29.03;27.62
15971;BME280;59785;52.582;13.892;2022-07-29T14:57:41;100878.03;;;29.16;28.32
15971;BME280;59785;52.582;13.892;2022-07-29T15:00:08;100876.94;;;29.42;27.85
15971;BME280;59785;52.582;13.892;2022-07-29T15:02:35;100882.19;;;29.39;27.93
15971;BME280;59785;52.582;13.892;2022-07-29T15:05:21;100887.41;;;29.76;27.43
15971;BME280;59785;52.582;13.892;2022-07-29T15:07:47;100885.63;;;30.21;26.61
15971;BME280;59785;52.582;13.892;2022-07-29T15:10:13;100881.47;;;30.34;26.27
15971;BME280;59785;52.582;13.892;2022-07-29T15:12:40;100882.03;;;30.21;26.39
15971;BME280;59785;52.582;13.892;2022-07-29T15:15:07;100868.19;;;30.41;26.04
15971;BME280;59785;52.582;13.892;2022-07-29T15:17:34;100873.97;;;30.30;26.58
15971;BME280;59785;52.582;13.892;2022-07-29T15:20:00;100869.53;;;30.49;26.21
15971;BME280;59785;52.582;13.892;2022-07-29T15:22:27;100869.00;;;30.37;25.80
15971;BME280;59785;52.582;13.892;2022-07-29T15:24:53;100872.63;;;30.32;25.70
15971;BME280;59785;52.582;13.892;2022-07-29T15:27:19;100871.19;;;30.45;26.12
15971;BME280;59785;52.582;13.892;2022-07-29T15:29:45;100866.44;;;30.51;26.20
15971;BME280;59785;52.582;13.892;2022-07-29T15:32:11;100866.97;;;30.53;25.82
15971;BME280;59785;52.582;13.892;2022-07-29T15:34:38;100858.97;;;31.01;25.36
15971;BME280;59785;52.582;13.892;2022-07-29T15:37:04;100870.78;;;31.75;24.18
15971;BME280;59785;52.582;13.892;2022-07-29T15:39:30;100861.88;;;32.08;23.85
15971;BME280;59785;52.582;13.892;2022-07-29T15:41:57;100872.06;;;32.55;22.60
15971;BME280;59785;52.582;13.892;2022-07-29T15:44:26;100862.91;;;32.79;22.46
15971;BME280;59785;52.582;13.892;2022-07-29T15:46:52;100853.78;;;32.54;22.35
15971;BME280;59785;52.582;13.892;2022-07-29T15:49:36;100851.34;;;31.80;23.38
15971;BME280;59785;52.582;13.892;2022-07-29T15:52:17;100853.28;;;32.09;22.96
15971;BME280;59785;52.582;13.892;2022-07-29T15:54:51;100851.06;;;32.30;22.96
15971;BME280;59785;52.582;13.892;2022-07-29T15:57:18;100853.41;;;32.42;22.90
15971;BME280;59785;52.582;13.892;2022-07-29T15:59:44;100851.16;;;32.44;22.57
15971;BME280;59785;52.582;13.892;2022-07-29T16:02:10;100849.59;;;31.90;22.97
15971;BME280;59785;52.582;13.892;2022-07-29T16:04:36;100844.06;;;31.31;23.78
15971;BME280;59785;52.582;13.892;2022-07-29T16:07:03;100848.56;;;31.22;24.18
15971;BME280;59785;52.582;13.892;2022-07-29T16:09:29;100839.75;;;31.15;24.04
15971;BME280;59785;52.582;13.892;2022-07-29T16:11:55;100840.78;;;31.24;24.17
15971;BME280;59785;52.582;13.892;2022-07-29T16:14:22;100837.59;;;31.41;23.70
15971;BME280;59785;52.582;13.892;2022-07-29T16:16:49;100837.78;;;30.81;24.42
15971;BME280;59785;52.582;13.892;2022-07-29T16:19:16;100828.03;;;30.49;24.57
15971;BME280;59785;52.582;13.892;2022-07-29T16:21:42;100829.34;;;30.62;24.46
15971;BME280;59785;52.582;13.892;2022-07-29T16:24:08;100820.47;;;30.65;23.97
15971;BME280;59785;52.582;13.892;2022-07-29T16:26:35;100823.41;;;30.79;23.99
15971;BME280;59785;52.582;13.892;2022-07-29T16:29:02;100816.97;;;30.89;23.71
15971;BME280;59785;52.582;13.892;2022-07-29T16:31:28;100810.34;;;30.90;23.96
15971;BME280;59785;52.582;13.892;2022-07-29T16:33:55;100812.44;;;30.69;24.52
15971;BME280;59785;52.582;13.892;2022-07-29T16:36:21;100814.59;;;30.72;24.44
15971;BME280;59785;52.582;13.892;2022-07-29T16:38:48;100821.63;;;30.59;24.22
15971;BME280;59785;52.582;13.892;2022-07-29T16:41:14;100809.91;;;30.72;23.81
15971;BME280;59785;52.582;13.892;2022-07-29T16:43:40;100805.16;;;30.78;24.17
15971;BME280;59785;52.582;13.892;2022-07-29T16:46:07;100804.78;;;30.95;23.64
15971;BME280;59785;52.582;13.892;2022-07-29T16:48:43;100815.88;;;30.90;23.84
15971;BME280;59785;52.582;13.892;2022-07-29T16:51:10;100808.25;;;30.71;23.70
15971;BME280;59785;52.582;13.892;2022-07-29T16:53:39;100811.47;;;30.83;23.48
15971;BME280;59785;52.582;13.892;2022-07-29T16:56:05;100813.09;;;30.95;23.63
15971;BME280;59785;52.582;13.892;2022-07-29T16:58:34;100811.19;;;30.90;23.41
15971;BME280;59785;52.582;13.892;2022-07-29T17:01:06;100803.03;;;30.64;23.42
15971;BME280;59785;52.582;13.892;2022-07-29T17:03:32;100805.25;;;30.62;23.86
15971;BME280;59785;52.582;13.892;2022-07-29T17:05:58;100811.66;;;30.58;23.86
15971;BME280;59785;52.582;13.892;2022-07-29T17:08:24;100808.91;;;30.58;23.69
15971;BME280;59785;52.582;13.892;2022-07-29T17:10:50;100806.09;;;30.08;24.08
15971;BME280;59785;52.582;13.892;2022-07-29T17:13:17;100807.22;;;30.02;24.61
15971;BME280;59785;52.582;13.892;2022-07-29T17:15:43;100815.03;;;29.84;25.00
15971;BME280;59785;52.582;13.892;2022-07-29T17:18:09;100814.22;;;29.68;24.87
15971;BME280;59785;52.582;13.892;2022-07-29T17:20:40;100801.84;;;29.40;25.18
15971;BME280;59785;52.582;13.892;2022-07-29T17:23:06;100812.91;;;29.15;26.01
15971;BME280;59785;52.582;13.892;2022-07-29T17:25:33;100812.59;;;28.80;25.90
15971;BME280;59785;52.582;13.892;2022-07-29T17:27:59;100816.38;;;28.43;26.58
15971;BME280;59785;52.582;13.892;2022-07-29T17:30:26;100802.56;;;27.80;27.29
15971;BME280;59785;52.582;13.892;2022-07-29T17:32:52;100801.88;;;27.52;27.59
15971;BME280;59785;52.582;13.892;2022-07-29T17:35:18;100809.25;;;27.47;27.80
15971;BME280;59785;52.582;13.892;2022-07-29T17:38:03;100807.44;;;27.63;27.64
15971;BME280;59785;52.582;13.892;2022-07-29T17:40:29;100805.63;;;27.79;27.63
15971;BME280;59785;52.582;13.892;2022-07-29T17:42:55;100794.78;;;27.62;27.92
15971;BME280;59785;52.582;13.892;2022-07-29T17:45:22;100805.13;;;27.44;28.11
15971;BME280;59785;52.582;13.892;2022-07-29T17:47:48;100801.97;;;27.25;28.50
15971;BME280;59785;52.582;13.892;2022-07-29T17:50:14;100808.75;;;27.18;28.94
15971;BME280;59785;52.582;13.892;2022-07-29T17:52:40;100811.19;;;27.14;29.17
15971;BME280;59785;52.582;13.892;2022-07-29T17:55:07;100810.78;;;27.00;29.23
15971;BME280;59785;52.582;13.892;2022-07-29T17:57:35;100813.38;;;26.80;29.62
15971;BME280;59785;52.582;13.892;2022-07-29T18:00:03;100809.38;;;26.65;29.72
15971;BME280;59785;52.582;13.892;2022-07-29T18:02:33;100807.72;;;26.42;30.54
15971;BME280;59785;52.582;13.892;2022-07-29T18:04:59;100811.41;;;26.26;30.45
15971;BME280;59785;52.582;13.892;2022-07-29T18:07:25;100812.56;;;26.08;31.03
15971;BME280;59785;52.582;13.892;2022-07-29T18:09:52;100815.00;;;25.87;31.41
15971;BME280;59785;52.582;13.892;2022-07-29T18:12:24;100819.44;;;25.71;31.58
15971;BME280;59785;52.582;13.892;2022-07-29T18:14:51;100812.34;;;25.53;31.85
15971;BME280;59785;52.582;13.892;2022-07-29T18:17:18;100815.34;;;25.35;31.99
15971;BME280;59785;52.582;13.892;2022-07-29T18:19:44;100812.59;;;25.18;32.69
15971;BME280;59785;52.582;13.892;2022-07-29T18:22:10;100810.84;;;24.95;33.02
15971;BME280;59785;52.582;13.892;2022-07-29T18:24:38;100818.03;;;24.84;32.89
15971;BME280;59785;52.582;13.892;2022-07-29T18:27:04;100817.75;;;24.69;33.51
15971;BME280;59785;52.582;13.892;2022-07-29T18:29:30;100820.78;;;24.55;33.48
15971;BME280;59785;52.582;13.892;2022-07-29T18:31:56;100828.44;;;24.41;33.43
15971;BME280;59785;52.582;13.892;2022-07-29T18:34:24;100828.13;;;24.26;33.76
15971;BME280;59785;52.582;13.892;2022-07-29T18:36:50;100828.91;;;24.10;34.60
15971;BME280;59785;52.582;13.892;2022-07-29T18:39:17;100827.50;;;23.95;34.69
15971;BME280;59785;52.582;13.892;2022-07-29T18:41:46;100827.75;;;23.82;35.23
15971;BME280;59785;52.582;13.892;2022-07-29T18:44:16;100829.03;;;23.68;35.44
15971;BME280;59785;52.582;13.892;2022-07-29T18:46:43;100836.41;;;23.55;35.91
15971;BME280;59785;52.582;13.892;2022-07-29T18:49:12;100840.69;;;23.39;36.03
15971;BME280;59785;52.582;13.892;2022-07-29T18:51:39;100831.41;;;23.29;36.41
15971;BME280;59785;52.582;13.892;2022-07-29T18:54:05;100836.03;;;23.16;36.98
15971;BME280;59785;52.582;13.892;2022-07-29T18:56:31;100836.81;;;23.05;37.30
15971;BME280;59785;52.582;13.892;2022-07-29T18:58:57;100837.13;;;22.97;37.20
15971;BME280;59785;52.582;13.892;2022-07-29T19:01:24;100837.34;;;22.83;37.70
15971;BME280;59785;52.582;13.892;2022-07-29T19:03:56;100840.03;;;22.72;38.08
15971;BME280;59785;52.582;13.892;2022-07-29T19:06:22;100843.53;;;22.60;38.17
15971;BME280;59785;52.582;13.892;2022-07-29T19:08:50;100848.28;;;22.53;38.64
15971;BME280;59785;52.582;13.892;2022-07-29T19:11:17;100844.63;;;22.41;39.00
15971;BME280;59785;52.582;13.892;2022-07-29T19:13:43;100851.03;;;22.35;39.28
15971;BME280;59785;52.582;13.892;2022-07-29T19:16:09;100844.81;;;22.28;39.20
15971;BME280;59785;52.582;13.892;2022-07-29T19:18:38;100850.75;;;22.18;39.59
15971;BME280;59785;52.582;13.892;2022-07-29T19:21:04;100849.19;;;22.10;39.40
15971;BME280;59785;52.582;13.892;2022-07-29T19:23:30;100861.00;;;22.04;39.66
15971;BME280;59785;52.582;13.892;2022-07-29T19:26:17;100858.59;;;21.96;40.48
15971;BME280;59785;52.582;13.892;2022-07-29T19:28:46;100859.09;;;21.86;40.55
15971;BME280;59785;52.582;13.892;2022-07-29T19:31:14;100864.84;;;21.78;40.63
15971;BME280;59785;52.582;13.892;2022-07-29T19:33:40;100861.34;;;21.71;40.91
15971;BME280;59785;52.582;13.892;2022-07-29T19:36:07;100866.59;;;21.72;40.67
15971;BME280;59785;52.582;13.892;2022-07-29T19:38:33;100868.50;;;21.72;40.84
15971;BME280;59785;52.582;13.892;2022-07-29T19:40:59;100872.34;;;21.64;41.07
15971;BME280;59785;52.582;13.892;2022-07-29T19:43:26;100865.66;;;21.60;41.14
15971;BME280;59785;52.582;13.892;2022-07-29T19:46:12;100878.50;;;21.53;40.76
15971;BME280;59785;52.582;13.892;2022-07-29T19:48:38;100869.53;;;21.45;41.42
15971;BME280;59785;52.582;13.892;2022-07-29T19:51:04;100869.38;;;21.40;41.70
15971;BME280;59785;52.582;13.892;2022-07-29T19:53:30;100873.13;;;21.39;41.45
15971;BME280;59785;52.582;13.892;2022-07-29T19:55:57;100873.34;;;21.38;41.41
15971;BME280;59785;52.582;13.892;2022-07-29T19:58:23;100867.06;;;21.37;41.47
15971;BME280;59785;52.582;13.892;2022-07-29T20:00:52;100862.53;;;21.31;41.39
15971;BME280;59785;52.582;13.892;2022-07-29T20:03:18;100867.56;;;21.27;41.94
15971;BME280;59785;52.582;13.892;2022-07-29T20:05:44;100870.13;;;21.22;42.15
15971;BME280;59785;52.582;13.892;2022-07-29T20:08:13;100867.66;;;21.14;42.16
15971;BME280;59785;52.582;13.892;2022-07-29T20:10:39;100866.22;;;21.12;42.63
15971;BME280;59785;52.582;13.892;2022-07-29T20:13:05;100866.03;;;21.06;42.16
15971;BME280;59785;52.582;13.892;2022-07-29T20:15:31;100871.56;;;21.00;42.81
15971;BME280;59785;52.582;13.892;2022-07-29T20:17:57;100870.31;;;20.96;42.36
15971;BME280;59785;52.582;13.892;2022-07-29T20:20:24;100866.34;;;20.92;42.74
15971;BME280;59785;52.582;13.892;2022-07-29T20:22:51;100867.00;;;20.87;42.35
15971;BME280;59785;52.582;13.892;2022-07-29T20:25:17;100872.50;;;20.80;42.73
15971;BME280;59785;52.582;13.892;2022-07-29T20:27:44;100867.28;;;20.72;42.89
15971;BME280;59785;52.582;13.892;2022-07-29T20:30:10;100872.13;;;20.70;43.57
15971;BME280;59785;52.582;13.892;2022-07-29T20:32:40;100865.44;;;20.66;43.67
15971;BME280;59785;52.582;13.892;2022-07-29T20:35:07;100870.06;;;20.65;43.43
15971;BME280;59785;52.582;13.892;2022-07-29T20:37:34;100872.16;;;20.63;42.96
15971;BME280;59785;52.582;13.892;2022-07-29T20:40:21;100873.84;;;20.58;43.87
15971;BME280;59785;52.582;13.892;2022-07-29T20:42:47;100871.75;;;20.60;43.37
15971;BME280;59785;52.582;13.892;2022-07-29T20:45:13;100883.50;;;20.54;43.58
15971;BME280;59785;52.582;13.892;2022-07-29T20:47:39;100884.97;;;20.49;43.31
15971;BME280;59785;52.582;13.892;2022-07-29T20:50:06;100883.53;;;20.40;43.84
15971;BME280;59785;52.582;13.892;2022-07-29T20:52:32;100883.13;;;20.37;44.21
15971;BME280;59785;52.582;13.892;2022-07-29T20:54:58;100887.34;;;20.33;43.90
15971;BME280;59785;52.582;13.892;2022-07-29T20:57:24;100892.41;;;20.22;43.78
15971;BME280;59785;52.582;13.892;2022-07-29T21:00:05;100887.81;;;20.16;44.02
15971;BME280;59785;52.582;13.892;2022-07-29T21:02:31;100893.69;;;20.13;44.40
15971;BME280;59785;52.582;13.892;2022-07-29T21:04:58;100887.19;;;20.07;44.77
15971;BME280;59785;52.582;13.892;2022-07-29T21:07:24;100885.75;;;20.05;44.93
15971;BME280;59785;52.582;13.892;2022-07-29T21:09:51;100884.31;;;20.02;44.68
15971;BME280;59785;52.582;13.892;2022-07-29T21:12:17;100880.97;;;20.00;44.79
15971;BME280;59785;52.582;13.892;2022-07-29T21:14:43;100878.66;;;19.97;44.86
15971;BME280;59785;52.582;13.892;2022-07-29T21:17:14;100899.59;;;19.97;44.65
15971;BME280;59785;52.582;13.892;2022-07-29T21:19:41;100888.28;;;19.93;45.38
15971;BME280;59785;52.582;13.892;2022-07-29T21:22:07;100892.91;;;19.93;45.35
15971;BME280;59785;52.582;13.892;2022-07-29T21:24:33;100889.56;;;19.91;45.42
15971;BME280;59785;52.582;13.892;2022-07-29T21:27:00;100884.75;;;19.93;44.94
15971;BME280;59785;52.582;13.892;2022-07-29T21:29:46;100891.41;;;19.90;45.29
15971;BME280;59785;52.582;13.892;2022-07-29T21:32:12;100893.97;;;19.85;45.17
15971;BME280;59785;52.582;13.892;2022-07-29T21:34:52;100891.66;;;19.82;45.81
15971;BME280;59785;52.582;13.892;2022-07-29T21:37:18;100893.94;;;19.78;45.88
15971;BME280;59785;52.582;13.892;2022-07-29T21:39:44;100882.88;;;19.73;45.67
15971;BME280;59785;52.582;13.892;2022-07-29T21:42:11;100893.75;;;19.73;46.28
15971;BME280;59785;52.582;13.892;2022-07-29T21:44:37;100890.38;;;19.71;46.11
15971;BME280;59785;52.582;13.892;2022-07-29T21:47:07;100899.16;;;19.66;46.52
15971;BME280;59785;52.582;13.892;2022-07-29T21:49:34;100892.47;;;19.62;46.10
15971;BME280;59785;52.582;13.892;2022-07-29T21:52:02;100900.00;;;19.60;46.40
15971;BME280;59785;52.582;13.892;2022-07-29T21:54:28;100895.19;;;19.56;46.49
15971;BME280;59785;52.582;13.892;2022-07-29T21:56:55;100895.59;;;19.53;46.66
15971;BME280;59785;52.582;13.892;2022-07-29T21:59:22;100890.81;;;19.48;46.92
15971;BME280;59785;52.582;13.892;2022-07-29T22:01:48;100885.56;;;19.40;46.70
15971;BME280;59785;52.582;13.892;2022-07-29T22:04:15;100886.63;;;19.39;46.94
15971;BME280;59785;52.582;13.892;2022-07-29T22:06:41;100892.47;;;19.36;47.32
15971;BME280;59785;52.582;13.892;2022-07-29T22:09:07;100889.53;;;19.30;47.06
15971;BME280;59785;52.582;13.892;2022-07-29T22:11:33;100888.06;;;19.28;47.18
15971;BME280;59785;52.582;13.892;2022-07-29T22:14:03;100888.91;;;19.22;47.03
15971;BME280;59785;52.582;13.892;2022-07-29T22:16:29;100892.66;;;19.14;47.56
15971;BME280;59785;52.582;13.892;2022-07-29T22:18:55;100889.72;;;19.09;47.50
15971;BME280;59785;52.582;13.892;2022-07-29T22:21:21;100884.28;;;19.02;48.31
15971;BME280;59785;52.582;13.892;2022-07-29T22:23:47;100887.63;;;18.98;48.00
15971;BME280;59785;52.582;13.892;2022-07-29T22:26:13;100890.09;;;18.92;48.58
15971;BME280;59785;52.582;13.892;2022-07-29T22:28:40;100886.56;;;18.92;48.46
15971;BME280;59785;52.582;13.892;2022-07-29T22:31:06;100885.50;;;18.86;48.48
15971;BME280;59785;52.582;13.892;2022-07-29T22:33:32;100887.16;;;18.81;48.33
15971;BME280;59785;52.582;13.892;2022-07-29T22:35:58;100876.44;;;18.72;48.49
15971;BME280;59785;52.582;13.892;2022-07-29T22:38:25;100877.06;;;18.68;49.38
15971;BME280;59785;52.582;13.892;2022-07-29T22:40:51;100878.50;;;18.64;49.36
15971;BME280;59785;52.582;13.892;2022-07-29T22:43:17;100871.78;;;18.53;49.60
15971;BME280;59785;52.582;13.892;2022-07-29T22:45:43;100881.38;;;18.49;49.44
15971;BME280;59785;52.582;13.892;2022-07-29T22:48:10;100871.75;;;18.46;50.03
15971;BME280;59785;52.582;13.892;2022-07-29T22:50:37;100873.44;;;18.47;50.17
15971;BME280;59785;52.582;13.892;2022-07-29T22:53:03;100871.97;;;18.45;50.12
15971;BME280;59785;52.582;13.892;2022-07-29T22:55:29;100879.25;;;18.44;49.58
15971;BME280;59785;52.582;13.892;2022-07-29T22:57:55;100870.06;;;18.39;49.93
15971;BME280;59785;52.582;13.892;2022-07-29T23:00:21;100866.28;;;18.33;50.13
15971;BME280;59785;52.582;13.892;2022-07-29T23:02:48;100862.06;;;18.24;50.94
15971;BME280;59785;52.582;13.892;2022-07-29T23:05:14;100860.81;;;18.20;50.97
15971;BME280;59785;52.582;13.892;2022-07-29T23:07:40;100854.31;;;18.14;50.92
15971;BME280;59785;52.582;13.892;2022-07-29T23:10:07;100847.59;;;18.10;51.36
15971;BME280;59785;52.582;13.892;2022-07-29T23:12:33;100839.66;;;18.08;51.48
15971;BME280;59785;52.582;13.892;2022-07-29T23:15:00;100848.19;;;18.05;51.17
15971;BME280;59785;52.582;13.892;2022-07-29T23:17:26;100845.91;;;18.02;51.21
15971;BME280;59785;52.582;13.892;2022-07-29T23:19:52;100850.06;;;17.98;51.53
15971;BME280;59785;52.582;13.892;2022-07-29T23:22:18;100844.38;;;17.93;52.08
15971;BME280;59785;52.582;13.892;2022-07-29T23:24:44;100846.25;;;17.92;52.00
15971;BME280;59785;52.582;13.892;2022-07-29T23:27:10;100841.66;;;17.93;51.68
15971;BME280;59785;52.582;13.892;2022-07-29T23:29:37;100849.34;;;17.89;51.67
15971;BME280;59785;52.582;13.892;2022-07-29T23:32:03;100846.44;;;17.91;52.03
15971;BME280;59785;52.582;13.892;2022-07-29T23:34:29;100844.38;;;17.93;52.19
15971;BME280;59785;52.582;13.892;2022-07-29T23:36:55;100840.19;;;17.90;51.77
15971;BME280;59785;52.582;13.892;2022-07-29T23:39:22;100834.53;;;17.85;52.06
15971;BME280;59785;52.582;13.892;2022-07-29T23:41:48;100839.47;;;17.82;51.89
15971;BME280;59785;52.582;13.892;2022-07-29T23:44:18;100841.75;;;17.78;51.98
15971;BME280;59785;52.582;13.892;2022-07-29T23:46:44;100840.91;;;17.78;52.22
15971;BME280;59785;52.582;13.892;2022-07-29T23:49:11;100842.78;;;17.77;52.32
15971;BME280;59785;52.582;13.892;2022-07-29T23:51:38;100843.00;;;17.76;52.41